CheckWX is a tool to help pilots better visualize weather data.  It is not intended as a substitute for an official pre-flight weather briefing.

15:54:39 UTC

KLPC METAR
Lompoc Airport
Lompoc, California, USA
Current

59 mins ago

KLPC 211456Z AUTO 24003KT 10SM OVC006 14/13 A2996 RMK AO2 SLP147 T01440128 53009
Observed
Jul-21 @ 14:56 UTC
Wind
  • 240° at 3 KTS
Visibility
10 SM
Flight Rules
IFR
Cloud Levels
  • Overcast at 600' AGL
Temperature
14°C / 57°F
Dewpoint
13°C / 55°F
Humidity
94%
Altimeter
29.96" Hg
Pressure
1014.52 hPa
Previous

2 hours ago

KLPC 211356Z AUTO 23003KT 10SM OVC006 14/13 A2995 RMK AO2 SLP144 T01390128
Observed
Jul-21 @ 13:56 UTC
Wind
  • 230° at 3 KTS
Visibility
10 SM
Flight Rules
IFR
Cloud Levels
  • Overcast at 600' AGL
Temperature
14°C / 57°F
Dewpoint
13°C / 55°F
Humidity
94%
Altimeter
29.95" Hg
Pressure
1014.22 hPa
Previous

3 hours ago

KLPC 211256Z AUTO 10SM OVC008 14/13 A2994 RMK AO2 SLP139 T01440128 $
Observed
Jul-21 @ 12:56 UTC
Visibility
10 SM
Flight Rules
IFR
Cloud Levels
  • Overcast at 800' AGL
Temperature
14°C / 57°F
Dewpoint
13°C / 55°F
Humidity
94%
Altimeter
29.94" Hg
Pressure
1013.92 hPa